Archival Weather

Tokyo Intl

Tokyo, Japan (RJTT)

Report from: Saturday, April 1, 2023 11:30 AM JST
Current time: Friday, July 19, 2024 12:49 PM JST

Current weather – Weather history – Daily summaries
Weather forecast

Temperature18.0°C (64.4°F)
Dew point13.0°C (55.4°F)
Winds 6 kts (3.1 m/s, 6.9 mph) East-Northeast (60°)
Visibility6.2 mi. (10 km)
Clouds Few clouds 3,000 ft. (914 m)
Altimeter30.00 in.Hg (1016 mB)
Relative humidity73 %
Density altitude469 ft. (143 m)
Flight conditions Visual Meteorological Conditions
Raw dataRJTT 010230Z 06006KT 9999 FEW030 18/13 Q1016 BECMG 08008KT
An error has occurred. This application may no longer respond until reloaded. Reload 🗙